Time;durP1;ratioP1;P1;durP2;ratioP2;P2;SDS_P1;SDS_P2;PMS_P1;PMS_P2;Temp;Humidity;BMP_temperature;BMP_pressure;BME280_temperature;BME280_humidity;BME280_pressure;Samples;Min_cycle;Max_cycle;Signal;HPM_P1;HPM_P2
2023/05/03 00:00:22;;;;;;;1.10;1.10;;;;;;;;;;4204079;28;20047;-60
2023/05/03 00:02:43;;;;;;;1.10;1.10;;;;;;;;;;4205158;28;20055;-59
2023/05/03 00:05:03;;;;;;;1.10;1.10;;;;;;;;;;4205113;28;20461;-60
2023/05/03 00:07:25;;;;;;;0.90;0.90;;;;;;;;;;4203683;28;20044;-59
2023/05/03 00:09:48;;;;;;;0.90;0.90;;;;;;;;;;4204576;28;20281;-59
2023/05/03 00:12:09;;;;;;;1.85;0.95;;;;;;;;;;4205152;28;20054;-59
2023/05/03 00:14:29;;;;;;;1.00;1.00;;;;;;;;;;4204474;28;20225;-59
2023/05/03 00:16:49;;;;;;;1.05;1.00;;;;;;;;;;4204878;28;20111;-59
2023/05/03 00:19:09;;;;;;;1.10;1.10;;;;;;;;;;4204655;28;20056;-59
2023/05/03 00:21:40;;;;;;;1.00;1.00;;;;;;;;;;4206977;28;20083;-59
2023/05/03 00:24:00;;;;;;;0.98;0.98;;;;;;;;;;4207691;28;20055;-60
2023/05/03 00:26:21;;;;;;;1.08;1.08;;;;;;;;;;4207625;28;20098;-60
2023/05/03 00:28:41;;;;;;;1.25;1.05;;;;;;;;;;4207694;28;20423;-59
2023/05/03 00:31:08;;;;;;;1.00;1.00;;;;;;;;;;4207409;28;20087;-59
2023/05/03 00:33:29;;;;;;;1.00;1.00;;;;;;;;;;4206713;28;20082;-60
2023/05/03 00:35:49;;;;;;;1.00;1.00;;;;;;;;;;4207442;28;20044;-60
2023/05/03 00:38:09;;;;;;;1.00;1.00;;;;;;;;;;4206270;28;20072;-60
2023/05/03 00:40:29;;;;;;;1.00;1.00;;;;;;;;;;4206346;28;20047;-59
2023/05/03 00:42:49;;;;;;;1.00;1.00;;;;;;;;;;4207900;28;20047;-60
2023/05/03 00:45:10;;;;;;;1.00;1.00;;;;;;;;;;4207002;28;20405;-59
2023/05/03 00:47:30;;;;;;;1.20;1.20;;;;;;;;;;4207053;28;20048;-59
2023/05/03 00:49:51;;;;;;;1.10;1.10;;;;;;;;;;4205932;28;20047;-59
2023/05/03 00:52:11;;;;;;;1.60;1.10;;;;;;;;;;4207468;28;20105;-60
2023/05/03 00:54:33;;;;;;;1.10;1.10;;;;;;;;;;4207369;28;20052;-59
2023/05/03 00:56:55;;;;;;;1.10;1.10;;;;;;;;;;4206583;28;20116;-59
2023/05/03 00:59:15;;;;;;;1.00;1.00;;;;;;;;;;4206652;28;20051;-60
2023/05/03 01:01:35;;;;;;;0.90;0.90;;;;;;;;;;4205443;28;20047;-60
2023/05/03 01:03:56;;;;;;;1.10;1.10;;;;;;;;;;4219371;22;20064;-57
2023/05/03 01:06:23;;;;;;;1.33;0.90;;;;;;;;;;4201472;28;20120;-57
2023/05/03 01:09:12;;;;;;;1.00;1.00;;;;;;;;;;4203963;28;20235;-58
2023/05/03 01:11:37;;;;;;;1.00;1.00;;;;;;;;;;4154066;28;20197;-58
2023/05/03 01:14:09;;;;;;;0.98;0.98;;;;;;;;;;4199659;28;20269;-57
2023/05/03 01:16:52;;;;;;;1.05;1.05;;;;;;;;;;4203219;28;20399;-58
2023/05/03 01:19:12;;;;;;;;;;;;;;;;;;4190381;28;20159;-58
2023/05/03 01:21:33;;;;;;;1.00;1.00;;;;;;;;;;4204424;28;19923;-58
2023/05/03 01:23:56;;;;;;;0.90;0.90;;;;;;;;;;4205831;28;20055;-58
2023/05/03 01:26:16;;;;;;;1.00;1.00;;;;;;;;;;4204526;28;20385;-57
2023/05/03 01:28:37;;;;;;;2.30;2.08;;;;;;;;;;4196508;28;20094;-57
2023/05/03 01:30:58;;;;;;;1.05;1.05;;;;;;;;;;4200185;28;20100;-57
2023/05/03 01:33:24;;;;;;;1.05;1.05;;;;;;;;;;4203890;28;20370;-57
2023/05/03 01:35:52;;;;;;;1.00;1.00;;;;;;;;;;4202377;28;20462;-57
2023/05/03 01:38:12;;;;;;;1.00;1.00;;;;;;;;;;4201139;28;20047;-57
2023/05/03 01:40:35;;;;;;;1.10;1.00;;;;;;;;;;4202265;28;20043;-58
2023/05/03 01:42:56;;;;;;;1.10;1.10;;;;;;;;;;4205005;28;20079;-57
2023/05/03 01:45:17;;;;;;;1.00;1.00;;;;;;;;;;4206027;28;20076;-57
2023/05/03 01:47:37;;;;;;;1.10;1.10;;;;;;;;;;4204831;28;20055;-58
2023/05/03 01:49:58;;;;;;;1.00;1.00;;;;;;;;;;4205716;28;20047;-58
2023/05/03 01:52:18;;;;;;;1.10;1.10;;;;;;;;;;4206182;28;20086;-58
2023/05/03 01:54:38;;;;;;;1.10;1.10;;;;;;;;;;4204895;28;20066;-58
2023/05/03 01:56:58;;;;;;;1.08;1.08;;;;;;;;;;4203312;28;20240;-57
2023/05/03 01:59:19;;;;;;;0.90;0.90;;;;;;;;;;4204952;28;20047;-57
2023/05/03 02:01:39;;;;;;;1.00;1.00;;;;;;;;;;4204850;28;20305;-57
2023/05/03 02:04:00;;;;;;;0.90;0.90;;;;;;;;;;4206249;28;20075;-57
2023/05/03 02:06:20;;;;;;;0.95;0.95;;;;;;;;;;4205699;28;20047;-57
2023/05/03 02:08:40;;;;;;;1.10;1.10;;;;;;;;;;4204951;28;20149;-57
2023/05/03 02:11:00;;;;;;;1.10;1.10;;;;;;;;;;4205968;28;20050;-57
2023/05/03 02:13:20;;;;;;;0.93;0.93;;;;;;;;;;4202432;28;20064;-57
2023/05/03 02:15:40;;;;;;;1.00;1.00;;;;;;;;;;4205174;28;20075;-57
2023/05/03 02:18:01;;;;;;;0.98;0.98;;;;;;;;;;4205810;28;20121;-57
2023/05/03 02:20:22;;;;;;;1.00;1.00;;;;;;;;;;4205761;28;20365;-57
2023/05/03 02:22:42;;;;;;;1.10;1.10;;;;;;;;;;4205725;28;20078;-57
2023/05/03 02:25:03;;;;;;;1.00;1.00;;;;;;;;;;4204594;28;20059;-57
2023/05/03 02:27:23;;;;;;;1.00;1.00;;;;;;;;;;4205559;28;20358;-56
2023/05/03 02:29:43;;;;;;;0.90;0.90;;;;;;;;;;4205013;28;20235;-57
2023/05/03 02:32:04;;;;;;;1.20;1.20;;;;;;;;;;4205401;28;20240;-57
2023/05/03 02:34:25;;;;;;;1.00;1.00;;;;;;;;;;4204236;28;20047;-56
2023/05/03 02:36:45;;;;;;;1.10;1.10;;;;;;;;;;4205145;28;20047;-57
2023/05/03 02:39:05;;;;;;;1.10;1.10;;;;;;;;;;4205657;28;20059;-57
2023/05/03 02:41:25;;;;;;;1.10;1.10;;;;;;;;;;4204764;28;20099;-56
2023/05/03 02:43:45;;;;;;;1.00;1.00;;;;;;;;;;4205472;28;20117;-57
2023/05/03 02:46:06;;;;;;;0.98;0.98;;;;;;;;;;4205277;28;20059;-57
2023/05/03 02:48:26;;;;;;;1.00;1.00;;;;;;;;;;4205359;28;20122;-57
2023/05/03 02:50:46;;;;;;;1.10;1.10;;;;;;;;;;4205153;28;20051;-57
2023/05/03 02:53:06;;;;;;;1.00;1.00;;;;;;;;;;4204826;28;20077;-56
2023/05/03 02:55:26;;;;;;;1.20;0.90;;;;;;;;;;4205454;28;20086;-57
2023/05/03 02:57:46;;;;;;;1.00;1.00;;;;;;;;;;4205219;28;20078;-57
2023/05/03 03:00:08;;;;;;;1.10;1.10;;;;;;;;;;4202704;28;20273;-57
2023/05/03 03:02:29;;;;;;;1.10;1.10;;;;;;;;;;4204952;28;20047;-57
2023/05/03 03:04:49;;;;;;;1.08;1.08;;;;;;;;;;4205261;28;20062;-56
2023/05/03 03:07:10;;;;;;;1.10;1.10;;;;;;;;;;4204688;28;20086;-56
2023/05/03 03:09:30;;;;;;;1.00;1.00;;;;;;;;;;4204630;28;20048;-57
2023/05/03 03:11:53;;;;;;;1.10;1.10;;;;;;;;;;4204428;28;20052;-57
2023/05/03 03:14:13;;;;;;;0.90;0.90;;;;;;;;;;4204693;28;20112;-57
2023/05/03 03:16:33;;;;;;;1.05;1.05;;;;;;;;;;4205008;28;20243;-56
2023/05/03 03:18:54;;;;;;;1.08;1.08;;;;;;;;;;4204608;28;20235;-58
2023/05/03 03:21:13;;;;;;;1.00;1.00;;;;;;;;;;4204951;28;20242;-56
2023/05/03 03:23:34;;;;;;;0.90;0.90;;;;;;;;;;4205052;28;20060;-56
2023/05/03 03:25:54;;;;;;;1.10;1.10;;;;;;;;;;4204443;28;20086;-57
2023/05/03 03:28:14;;;;;;;1.10;1.10;;;;;;;;;;4205031;28;20063;-56
2023/05/03 03:30:34;;;;;;;1.00;1.00;;;;;;;;;;4204961;28;20052;-57
2023/05/03 03:32:55;;;;;;;1.10;1.10;;;;;;;;;;4204887;28;20104;-57
2023/05/03 03:35:15;;;;;;;1.05;1.05;;;;;;;;;;4204634;28;20056;-57
2023/05/03 03:37:36;;;;;;;1.05;1.05;;;;;;;;;;4203756;28;20090;-57
2023/05/03 03:39:56;;;;;;;1.08;1.08;;;;;;;;;;4204771;28;20059;-56
2023/05/03 03:42:16;;;;;;;1.10;1.10;;;;;;;;;;4204995;28;20055;-56
2023/05/03 03:44:38;;;;;;;1.00;1.00;;;;;;;;;;4203910;28;20086;-56
2023/05/03 03:46:59;;;;;;;1.00;1.00;;;;;;;;;;4204799;28;20090;-56
2023/05/03 03:49:19;;;;;;;1.00;1.00;;;;;;;;;;4203818;28;20374;-56
2023/05/03 03:51:39;;;;;;;1.00;1.00;;;;;;;;;;4203943;28;20101;-56
2023/05/03 03:53:59;;;;;;;0.90;0.90;;;;;;;;;;4205789;28;20047;-56
2023/05/03 03:56:20;;;;;;;1.10;1.10;;;;;;;;;;4207306;28;20047;-56
2023/05/03 03:58:40;;;;;;;1.00;1.00;;;;;;;;;;4204701;28;20083;-56
2023/05/03 04:01:01;;;;;;;1.38;1.00;;;;;;;;;;4206339;28;20082;-57
2023/05/03 04:03:21;;;;;;;1.20;1.20;;;;;;;;;;4207416;28;20066;-56
2023/05/03 04:05:41;;;;;;;1.10;1.10;;;;;;;;;;4206952;28;20081;-57
2023/05/03 04:08:02;;;;;;;1.00;1.00;;;;;;;;;;4207513;28;20369;-56
2023/05/03 04:10:22;;;;;;;1.10;1.10;;;;;;;;;;4207716;28;20051;-56
2023/05/03 04:12:42;;;;;;;1.00;1.00;;;;;;;;;;4207530;28;20086;-57
2023/05/03 04:15:03;;;;;;;1.40;1.38;;;;;;;;;;4205795;28;20313;-56
2023/05/03 04:17:23;;;;;;;1.10;1.10;;;;;;;;;;4206570;28;20082;-57
2023/05/03 04:19:43;;;;;;;1.00;1.00;;;;;;;;;;4207312;28;20086;-56
2023/05/03 04:22:04;;;;;;;1.00;1.00;;;;;;;;;;4205908;28;20047;-55
2023/05/03 04:24:29;;;;;;;2.15;1.20;;;;;;;;;;4207248;28;20047;-56
2023/05/03 04:26:50;;;;;;;1.10;1.10;;;;;;;;;;4206715;28;20047;-56
2023/05/03 04:29:11;;;;;;;1.20;1.20;;;;;;;;;;4206464;28;20055;-56
2023/05/03 04:31:31;;;;;;;1.13;1.13;;;;;;;;;;4206277;28;20087;-56
2023/05/03 04:33:51;;;;;;;1.10;1.10;;;;;;;;;;4190761;28;20052;-56
2023/05/03 04:36:15;;;;;;;1.10;1.10;;;;;;;;;;4206830;28;20113;-56
2023/05/03 04:38:36;;;;;;;1.00;1.00;;;;;;;;;;4206290;28;20412;-56
2023/05/03 04:40:57;;;;;;;1.00;1.00;;;;;;;;;;4207090;28;20107;-56
2023/05/03 04:43:17;;;;;;;1.92;1.83;;;;;;;;;;4197320;28;20155;-56
2023/05/03 04:45:37;;;;;;;1.00;1.00;;;;;;;;;;4206452;28;20051;-56
2023/05/03 04:47:57;;;;;;;1.10;1.00;;;;;;;;;;4206888;28;20408;-56
2023/05/03 04:50:18;;;;;;;1.00;1.00;;;;;;;;;;4206502;28;20175;-57
2023/05/03 04:52:38;;;;;;;1.10;1.10;;;;;;;;;;4206776;28;20059;-55
2023/05/03 04:54:58;;;;;;;1.10;1.08;;;;;;;;;;4206773;28;20393;-56
2023/05/03 04:57:18;;;;;;;1.27;1.20;;;;;;;;;;4206063;28;20043;-56
2023/05/03 04:59:38;;;;;;;1.17;1.15;;;;;;;;;;4206009;28;20055;-56
2023/05/03 05:01:59;;;;;;;1.10;1.10;;;;;;;;;;4206539;28;20047;-56
2023/05/03 05:04:19;;;;;;;1.02;1.02;;;;;;;;;;4206217;28;20066;-56
2023/05/03 05:06:40;;;;;;;1.20;1.20;;;;;;;;;;4206784;28;20051;-56
2023/05/03 05:09:01;;;;;;;1.20;1.20;;;;;;;;;;4205437;28;20047;-56
2023/05/03 05:11:22;;;;;;;1.13;1.13;;;;;;;;;;4206686;28;20048;-56
2023/05/03 05:13:43;;;;;;;1.35;1.25;;;;;;;;;;4206425;28;20102;-56
2023/05/03 05:16:03;;;;;;;1.50;1.50;;;;;;;;;;4205202;28;20082;-56
2023/05/03 05:18:23;;;;;;;1.73;1.73;;;;;;;;;;4206472;28;20075;-56
2023/05/03 05:20:43;;;;;;;1.10;1.10;;;;;;;;;;4206541;28;20236;-58
2023/05/03 05:23:03;;;;;;;1.38;1.38;;;;;;;;;;4205558;28;20054;-58
2023/05/03 05:25:24;;;;;;;1.60;1.60;;;;;;;;;;4206490;28;20102;-58
2023/05/03 05:27:44;;;;;;;1.10;1.10;;;;;;;;;;4206542;28;20082;-59
2023/05/03 05:30:05;;;;;;;1.13;1.13;;;;;;;;;;4206004;28;20206;-58
2023/05/03 05:32:25;;;;;;;1.20;1.20;;;;;;;;;;4205055;28;20074;-58
2023/05/03 05:34:51;;;;;;;1.10;1.10;;;;;;;;;;4206433;28;20098;-58
2023/05/03 05:37:12;;;;;;;1.85;1.15;;;;;;;;;;4205990;28;20089;-58
2023/05/03 05:39:32;;;;;;;1.10;1.10;;;;;;;;;;4206124;28;20102;-58
2023/05/03 05:41:52;;;;;;;1.10;1.10;;;;;;;;;;4206213;28;20094;-58
2023/05/03 05:44:12;;;;;;;1.33;1.23;;;;;;;;;;4205958;28;20292;-58
2023/05/03 05:46:32;;;;;;;1.20;1.20;;;;;;;;;;4206503;28;20055;-57
2023/05/03 05:48:52;;;;;;;1.10;1.10;;;;;;;;;;4205552;28;20095;-58
2023/05/03 05:51:12;;;;;;;1.10;1.10;;;;;;;;;;4206044;28;20090;-57
2023/05/03 05:53:32;;;;;;;1.50;1.40;;;;;;;;;;4204633;28;20059;-57
2023/05/03 05:55:53;;;;;;;1.48;1.30;;;;;;;;;;4205951;28;20047;-58
2023/05/03 05:58:13;;;;;;;1.42;1.42;;;;;;;;;;4205948;28;20078;-58
2023/05/03 06:00:34;;;;;;;1.30;1.30;;;;;;;;;;4204650;28;20052;-58
2023/05/03 06:02:54;;;;;;;1.33;1.33;;;;;;;;;;4204205;28;20267;-58
2023/05/03 06:05:16;;;;;;;1.13;1.10;;;;;;;;;;4205473;28;20059;-58
2023/05/03 06:07:36;;;;;;;1.35;1.35;;;;;;;;;;4204870;28;20281;-58
2023/05/03 06:09:56;;;;;;;1.30;1.30;;;;;;;;;;4204195;28;20050;-58
2023/05/03 06:12:17;;;;;;;1.20;1.20;;;;;;;;;;4204148;28;20040;-58
2023/05/03 06:14:37;;;;;;;1.02;1.02;;;;;;;;;;4205044;28;20043;-58
2023/05/03 06:16:58;;;;;;;1.10;1.10;;;;;;;;;;4204448;28;20111;-57
2023/05/03 06:19:19;;;;;;;1.70;1.38;;;;;;;;;;4205871;28;20051;-58
2023/05/03 06:21:39;;;;;;;1.30;1.30;;;;;;;;;;4205670;28;20224;-58
2023/05/03 06:23:59;;;;;;;1.20;1.20;;;;;;;;;;4204467;28;20089;-58
2023/05/03 06:26:19;;;;;;;1.42;1.40;;;;;;;;;;4205609;28;20389;-58
2023/05/03 06:28:39;;;;;;;1.17;1.17;;;;;;;;;;4205192;28;20059;-58
2023/05/03 06:31:01;;;;;;;1.17;1.17;;;;;;;;;;4204946;28;20087;-58
2023/05/03 06:33:21;;;;;;;1.30;1.30;;;;;;;;;;4205483;28;20127;-58
2023/05/03 06:35:41;;;;;;;1.10;1.10;;;;;;;;;;4205371;28;20055;-58
2023/05/03 06:38:02;;;;;;;1.10;1.10;;;;;;;;;;4204271;28;20067;-58
2023/05/03 06:40:24;;;;;;;1.10;1.10;;;;;;;;;;4190157;28;20116;-58
2023/05/03 06:42:45;;;;;;;1.10;1.10;;;;;;;;;;4205619;28;20139;-59
2023/05/03 06:45:07;;;;;;;1.20;1.20;;;;;;;;;;4204541;28;20047;-58
2023/05/03 06:47:27;;;;;;;1.30;1.27;;;;;;;;;;4205444;28;20108;-58
2023/05/03 06:49:47;;;;;;;1.10;1.10;;;;;;;;;;4204735;28;20051;-57
2023/05/03 06:52:08;;;;;;;1.10;1.10;;;;;;;;;;4204986;28;20075;-58
2023/05/03 06:54:31;;;;;;;1.30;1.30;;;;;;;;;;4203882;28;20047;-57
2023/05/03 06:56:51;;;;;;;2.03;1.83;;;;;;;;;;4205106;28;20078;-58
2023/05/03 06:59:11;;;;;;;1.40;1.30;;;;;;;;;;4205178;28;20093;-58
2023/05/03 07:01:32;;;;;;;1.25;1.23;;;;;;;;;;4203791;28;20059;-58
2023/05/03 07:03:53;;;;;;;1.25;1.25;;;;;;;;;;4203619;28;20274;-58
2023/05/03 07:06:14;;;;;;;1.90;1.80;;;;;;;;;;4204904;28;20056;-58
2023/05/03 07:08:34;;;;;;;1.30;1.30;;;;;;;;;;4204489;28;20070;-58
2023/05/03 07:10:55;;;;;;;1.63;1.63;;;;;;;;;;4205226;28;20437;-57
2023/05/03 07:13:14;;;;;;;1.60;1.60;;;;;;;;;;4205191;28;20052;-58
2023/05/03 07:15:35;;;;;;;1.70;1.70;;;;;;;;;;4205000;28;20054;-58
2023/05/03 07:17:55;;;;;;;1.50;1.50;;;;;;;;;;4203836;28;20051;-58
2023/05/03 07:20:15;;;;;;;1.70;1.70;;;;;;;;;;4204951;28;20051;-58
2023/05/03 07:22:35;;;;;;;2.13;2.13;;;;;;;;;;4205072;28;20080;-58
2023/05/03 07:24:58;;;;;;;1.60;1.58;;;;;;;;;;4204328;28;20086;-58
2023/05/03 07:27:18;;;;;;;1.35;1.35;;;;;;;;;;4203426;28;20131;-58
2023/05/03 07:29:38;;;;;;;2.13;2.13;;;;;;;;;;4204464;28;20063;-58
2023/05/03 07:31:59;;;;;;;2.00;1.90;;;;;;;;;;4205032;28;20043;-58
2023/05/03 07:34:19;;;;;;;1.83;1.83;;;;;;;;;;4204234;28;20155;-58
2023/05/03 07:36:39;;;;;;;1.60;1.60;;;;;;;;;;4204564;28;20251;-57
2023/05/03 07:38:59;;;;;;;2.03;2.03;;;;;;;;;;4204849;28;20119;-58
2023/05/03 07:41:19;;;;;;;1.70;1.65;;;;;;;;;;4204707;28;20389;-58
2023/05/03 07:43:39;;;;;;;1.58;1.58;;;;;;;;;;4204438;28;20047;-58
2023/05/03 07:45:59;;;;;;;1.70;1.70;;;;;;;;;;4204829;28;20048;-58
2023/05/03 07:48:20;;;;;;;1.52;1.52;;;;;;;;;;4204726;28;20048;-58
2023/05/03 07:50:43;;;;;;;1.70;1.70;;;;;;;;;;4204495;28;20078;-58
2023/05/03 07:53:03;;;;;;;2.35;1.70;;;;;;;;;;4204723;28;20039;-58
2023/05/03 07:55:24;;;;;;;2.05;1.60;;;;;;;;;;4204775;28;20242;-58
2023/05/03 07:57:45;;;;;;;1.90;1.80;;;;;;;;;;4203755;28;20054;-58
2023/05/03 08:00:05;;;;;;;1.40;1.40;;;;;;;;;;4204355;28;20322;-58
2023/05/03 08:02:26;;;;;;;1.50;1.45;;;;;;;;;;4195879;28;20112;-58
2023/05/03 08:04:46;;;;;;;1.58;1.58;;;;;;;;;;4204463;28;20055;-58
2023/05/03 08:07:07;;;;;;;1.50;1.50;;;;;;;;;;4204580;28;20043;-58
2023/05/03 08:09:28;;;;;;;1.55;1.55;;;;;;;;;;4203949;28;20051;-58
2023/05/03 08:11:49;;;;;;;5.40;1.50;;;;;;;;;;4204400;28;20063;-58
2023/05/03 08:14:09;;;;;;;1.52;1.52;;;;;;;;;;4204421;28;20059;-59
2023/05/03 08:16:29;;;;;;;1.60;1.50;;;;;;;;;;4204539;28;20047;-58
2023/05/03 08:18:50;;;;;;;1.40;1.40;;;;;;;;;;4203701;28;20059;-58
2023/05/03 08:21:12;;;;;;;1.45;1.45;;;;;;;;;;4204369;28;20087;-58
2023/05/03 08:23:32;;;;;;;1.27;1.27;;;;;;;;;;4203787;28;20054;-58
2023/05/03 08:25:53;;;;;;;1.40;1.40;;;;;;;;;;4204394;28;20266;-58
2023/05/03 08:28:13;;;;;;;1.50;1.50;;;;;;;;;;4203563;28;20044;-58
2023/05/03 08:30:34;;;;;;;1.65;1.65;;;;;;;;;;4204327;28;20071;-58
2023/05/03 08:32:55;;;;;;;1.83;1.83;;;;;;;;;;4204226;28;20079;-59
2023/05/03 08:35:15;;;;;;;1.50;1.42;;;;;;;;;;4204100;28;20099;-58
2023/05/03 08:37:39;;;;;;;1.40;1.40;;;;;;;;;;4204172;28;20059;-58
2023/05/03 08:40:00;;;;;;;1.80;1.80;;;;;;;;;;4204752;28;20082;-58
2023/05/03 08:42:21;;;;;;;1.50;1.50;;;;;;;;;;4206088;28;20048;-58
2023/05/03 08:44:47;;;;;;;1.60;1.60;;;;;;;;;;4207037;28;20060;-58
2023/05/03 08:47:07;;;;;;;2.15;1.50;;;;;;;;;;4207099;28;20294;-58
2023/05/03 08:49:28;;;;;;;1.50;1.50;;;;;;;;;;4205841;28;20086;-58
2023/05/03 08:51:49;;;;;;;1.63;1.63;;;;;;;;;;4206293;28;20071;-58
2023/05/03 08:54:09;;;;;;;1.65;1.60;;;;;;;;;;4204434;28;20052;-58
2023/05/03 08:56:34;;;;;;;1.73;1.60;;;;;;;;;;4206673;28;20063;-58
2023/05/03 08:58:54;;;;;;;1.60;1.50;;;;;;;;;;4206069;28;20060;-58
2023/05/03 09:01:14;;;;;;;1.60;1.60;;;;;;;;;;4206849;28;20611;-58
2023/05/03 09:03:35;;;;;;;1.50;1.42;;;;;;;;;;4206745;28;20048;-58
2023/05/03 09:06:00;;;;;;;1.77;1.67;;;;;;;;;;4206086;28;20102;-58
2023/05/03 09:08:21;;;;;;;1.65;1.65;;;;;;;;;;4206673;28;20079;-58
2023/05/03 09:10:42;;;;;;;1.60;1.50;;;;;;;;;;4206492;28;20494;-58
2023/05/03 09:13:02;;;;;;;1.80;1.70;;;;;;;;;;4206368;28;20058;-58
2023/05/03 09:15:23;;;;;;;1.40;1.40;;;;;;;;;;4206351;28;20059;-57
2023/05/03 09:17:43;;;;;;;1.63;1.27;;;;;;;;;;4206381;28;20243;-58
2023/05/03 09:20:03;;;;;;;1.52;1.52;;;;;;;;;;4206267;28;20071;-58
2023/05/03 09:22:26;;;;;;;1.70;1.70;;;;;;;;;;4206134;28;20307;-58
2023/05/03 09:24:52;;;;;;;1.50;1.50;;;;;;;;;;4206446;28;20366;-58
2023/05/03 09:27:22;;;;;;;1.77;1.77;;;;;;;;;;4206522;28;20389;-58
2023/05/03 09:29:43;;;;;;;1.58;1.58;;;;;;;;;;4206477;28;20074;-58
2023/05/03 09:32:04;;;;;;;2.05;1.88;;;;;;;;;;4189198;28;20344;-58
2023/05/03 09:34:24;;;;;;;1.70;1.60;;;;;;;;;;4205546;28;20063;-58
2023/05/03 09:36:48;;;;;;;1.58;1.58;;;;;;;;;;4206327;28;20062;-58
2023/05/03 09:39:16;;;;;;;1.38;1.38;;;;;;;;;;4206287;28;20086;-58
2023/05/03 09:41:36;;;;;;;1.50;1.50;;;;;;;;;;4205712;28;20259;-58
2023/05/03 09:44:01;;;;;;;1.30;1.30;;;;;;;;;;4206259;28;20078;-58
2023/05/03 09:46:28;;;;;;;1.67;1.67;;;;;;;;;;4205982;28;20051;-58
2023/05/03 09:48:49;;;;;;;1.50;1.50;;;;;;;;;;4205599;28;20047;-58
2023/05/03 09:51:10;;;;;;;1.65;1.65;;;;;;;;;;4205916;28;20074;-58
2023/05/03 09:53:31;;;;;;;1.50;1.50;;;;;;;;;;4205064;28;20052;-58
2023/05/03 09:55:52;;;;;;;2.10;2.10;;;;;;;;;;4206083;28;20128;-58
2023/05/03 09:58:12;;;;;;;1.63;1.50;;;;;;;;;;4205190;28;20070;-58
2023/05/03 10:00:42;;;;;;;1.60;1.60;;;;;;;;;;4205160;28;20055;-58
2023/05/03 10:03:08;;;;;;;1.40;1.40;;;;;;;;;;4205198;28;20142;-58
2023/05/03 10:05:31;;;;;;;1.85;1.85;;;;;;;;;;4205048;28;20059;-58
2023/05/03 10:07:52;;;;;;;3.00;2.60;;;;;;;;;;4204369;28;20070;-58
2023/05/03 10:10:12;;;;;;;1.75;1.65;;;;;;;;;;4205967;28;20102;-58
2023/05/03 10:12:35;;;;;;;1.77;1.77;;;;;;;;;;4205277;28;20270;-59
2023/05/03 10:14:56;;;;;;;2.03;1.92;;;;;;;;;;4205619;28;20079;-58
2023/05/03 10:17:20;;;;;;;1.83;1.83;;;;;;;;;;4205296;28;20326;-58
2023/05/03 10:19:52;;;;;;;1.73;1.73;;;;;;;;;;4205743;28;20362;-58
2023/05/03 10:22:13;;;;;;;1.40;1.40;;;;;;;;;;4205833;28;20055;-58
2023/05/03 10:24:34;;;;;;;1.55;1.55;;;;;;;;;;4205749;28;20573;-59
2023/05/03 10:26:56;;;;;;;1.70;1.70;;;;;;;;;;4204656;28;20091;-58
2023/05/03 10:29:44;;;;;;;2.33;2.22;;;;;;;;;;4205668;28;20055;-58
2023/05/03 10:32:05;;;;;;;1.88;1.80;;;;;;;;;;4205123;28;20430;-58
2023/05/03 10:34:31;;;;;;;1.55;1.55;;;;;;;;;;4205109;28;20051;-58
2023/05/03 10:36:52;;;;;;;1.40;1.40;;;;;;;;;;4204655;28;20062;-58
2023/05/03 10:39:17;;;;;;;1.50;1.50;;;;;;;;;;4204408;28;20400;-58
2023/05/03 10:41:38;;;;;;;1.63;1.48;;;;;;;;;;4205403;28;20083;-59
2023/05/03 10:43:58;;;;;;;1.45;1.35;;;;;;;;;;4204715;28;20054;-57
2023/05/03 10:46:30;;;;;;;2.40;1.52;;;;;;;;;;4204918;28;20062;-59
2023/05/03 10:49:10;;;;;;;1.30;1.30;;;;;;;;;;4205471;28;20067;-58
2023/05/03 10:51:32;;;;;;;1.40;1.40;;;;;;;;;;4204917;28;20398;-58
2023/05/03 10:53:52;;;;;;;1.50;1.50;;;;;;;;;;4205104;28;20231;-57
2023/05/03 10:56:14;;;;;;;1.40;1.40;;;;;;;;;;4204959;28;20051;-58
2023/05/03 10:58:35;;;;;;;1.55;1.55;;;;;;;;;;4205086;28;20166;-58
2023/05/03 11:00:56;;;;;;;3.63;1.50;;;;;;;;;;4203517;28;20082;-58
2023/05/03 11:03:31;;;;;;;1.35;1.25;;;;;;;;;;4204391;28;20063;-58
2023/05/03 11:05:52;;;;;;;1.50;1.50;;;;;;;;;;4203266;28;20058;-58
2023/05/03 11:08:12;;;;;;;1.20;1.20;;;;;;;;;;4205899;28;20104;-58
2023/05/03 11:10:32;;;;;;;1.60;1.48;;;;;;;;;;4204686;28;20074;-58
2023/05/03 11:12:53;;;;;;;1.85;1.48;;;;;;;;;;4205057;28;20062;-58
2023/05/03 11:15:13;;;;;;;1.33;1.33;;;;;;;;;;4205225;28;20086;-58
2023/05/03 11:17:33;;;;;;;1.33;1.33;;;;;;;;;;4205073;28;20066;-58
2023/05/03 11:19:54;;;;;;;1.30;1.30;;;;;;;;;;4204270;28;20079;-58
2023/05/03 11:22:14;;;;;;;1.30;1.30;;;;;;;;;;4205065;28;20050;-58
2023/05/03 11:24:34;;;;;;;1.10;1.10;;;;;;;;;;4204602;28;20064;-59
2023/05/03 11:26:54;;;;;;;1.08;1.08;;;;;;;;;;4204648;28;20067;-58
2023/05/03 11:29:16;;;;;;;1.48;1.38;;;;;;;;;;4203507;28;20051;-59
2023/05/03 11:31:36;;;;;;;3.50;1.40;;;;;;;;;;4204783;28;20070;-58
2023/05/03 11:33:56;;;;;;;1.38;1.27;;;;;;;;;;4204577;28;20055;-58
2023/05/03 11:36:16;;;;;;;1.45;1.35;;;;;;;;;;4204296;28;20370;-59
2023/05/03 11:38:38;;;;;;;1.48;1.20;;;;;;;;;;4204666;28;20056;-59
2023/05/03 11:40:59;;;;;;;1.23;1.23;;;;;;;;;;4203659;28;20047;-58
2023/05/03 11:43:20;;;;;;;2.30;1.25;;;;;;;;;;4204759;28;20051;-57
2023/05/03 11:45:42;;;;;;;1.20;1.20;;;;;;;;;;4204338;28;20051;-58
2023/05/03 11:48:03;;;;;;;1.27;1.27;;;;;;;;;;4204161;28;20056;-58
2023/05/03 11:50:27;;;;;;;1.52;1.52;;;;;;;;;;4202821;28;20151;-58
2023/05/03 11:52:48;;;;;;;1.20;1.20;;;;;;;;;;4204644;28;20358;-58
2023/05/03 11:55:09;;;;;;;1.30;1.30;;;;;;;;;;4204668;28;20051;-57
2023/05/03 11:57:31;;;;;;;1.38;1.38;;;;;;;;;;4204559;28;20048;-58
2023/05/03 11:59:52;;;;;;;1.33;1.23;;;;;;;;;;4204519;28;20397;-57
2023/05/03 12:02:12;;;;;;;1.55;1.55;;;;;;;;;;4204301;28;20413;-58
2023/05/03 12:04:34;;;;;;;1.40;1.40;;;;;;;;;;4204123;28;20239;-57
2023/05/03 12:06:55;;;;;;;1.40;1.40;;;;;;;;;;4203859;28;20067;-57
2023/05/03 12:09:18;;;;;;;2.05;1.40;;;;;;;;;;4203615;28;20044;-58
2023/05/03 12:11:41;;;;;;;1.67;1.58;;;;;;;;;;4203970;28;20068;-58
2023/05/03 12:14:04;;;;;;;1.60;1.60;;;;;;;;;;4205041;28;20108;-57
2023/05/03 12:16:24;;;;;;;1.50;1.50;;;;;;;;;;4207402;28;20087;-57
2023/05/03 12:18:46;;;;;;;3.10;1.77;;;;;;;;;;4192403;28;20401;-58
2023/05/03 12:21:07;;;;;;;3.33;1.95;;;;;;;;;;4207386;28;20055;-58
2023/05/03 12:23:48;;;;;;;1.33;1.33;;;;;;;;;;4206861;28;20067;-58
2023/05/03 12:26:10;;;;;;;1.40;1.40;;;;;;;;;;4206227;28;20055;-58
2023/05/03 12:28:33;;;;;;;1.50;1.50;;;;;;;;;;4207186;28;20056;-57
2023/05/03 12:30:53;;;;;;;1.60;1.60;;;;;;;;;;4207285;28;20082;-57
2023/05/03 12:33:18;;;;;;;1.65;1.55;;;;;;;;;;4207030;28;20070;-59
2023/05/03 12:35:42;;;;;;;1.70;1.70;;;;;;;;;;4207128;28;20266;-58
2023/05/03 12:38:08;;;;;;;2.03;2.03;;;;;;;;;;4206605;28;20052;-59
2023/05/03 12:40:30;;;;;;;1.70;1.70;;;;;;;;;;4206224;28;20075;-59
2023/05/03 12:42:55;;;;;;;1.60;1.60;;;;;;;;;;4206993;28;20075;-59
2023/05/03 12:45:15;;;;;;;1.50;1.50;;;;;;;;;;4206217;28;20098;-57
2023/05/03 12:47:40;;;;;;;1.77;1.40;;;;;;;;;;4205731;28;20070;-57
2023/05/03 12:50:04;;;;;;;1.55;1.45;;;;;;;;;;4206690;28;20064;-57
2023/05/03 12:52:26;;;;;;;1.53;1.50;;;;;;;;;;4190879;28;20102;-57
2023/05/03 12:54:49;;;;;;;1.30;1.30;;;;;;;;;;4206355;28;20297;-58
2023/05/03 12:57:15;;;;;;;1.65;1.55;;;;;;;;;;4206771;28;20074;-58
2023/05/03 12:59:41;;;;;;;1.40;1.40;;;;;;;;;;4206369;28;20047;-57
2023/05/03 13:02:03;;;;;;;1.40;1.40;;;;;;;;;;4206643;28;20312;-58
2023/05/03 13:04:43;;;;;;;1.45;1.45;;;;;;;;;;4206683;28;20059;-57
2023/05/03 13:07:20;;;;;;;1.88;1.63;;;;;;;;;;4206402;28;20069;-58
2023/05/03 13:09:48;;;;;;;1.40;1.40;;;;;;;;;;4206520;28;20043;-58
2023/05/03 13:12:12;;;;;;;1.20;1.20;;;;;;;;;;4206233;28;20064;-57
2023/05/03 13:14:33;;;;;;;1.70;1.70;;;;;;;;;;4206287;28;20052;-57
2023/05/03 13:16:54;;;;;;;1.50;1.50;;;;;;;;;;4206281;28;20094;-57
2023/05/03 13:19:15;;;;;;;1.50;1.50;;;;;;;;;;4206315;28;20308;-57
2023/05/03 13:21:35;;;;;;;1.20;1.20;;;;;;;;;;4206756;28;20067;-57
2023/05/03 13:23:55;;;;;;;1.58;1.10;;;;;;;;;;4206154;28;20078;-57
2023/05/03 13:26:16;;;;;;;1.10;1.10;;;;;;;;;;4205186;28;20091;-57
2023/05/03 13:28:36;;;;;;;1.92;1.10;;;;;;;;;;4206508;28;20064;-57
2023/05/03 13:30:56;;;;;;;1.40;1.10;;;;;;;;;;4206110;28;20055;-57
2023/05/03 13:33:16;;;;;;;2.55;1.15;;;;;;;;;;4205663;28;20246;-57
2023/05/03 13:35:36;;;;;;;1.00;1.00;;;;;;;;;;4205640;28;20055;-57
2023/05/03 13:37:56;;;;;;;1.00;1.00;;;;;;;;;;4205386;28;20266;-57
2023/05/03 13:40:16;;;;;;;1.10;1.10;;;;;;;;;;4206333;28;20110;-58
2023/05/03 13:42:36;;;;;;;1.20;1.20;;;;;;;;;;4205269;28;20078;-57
2023/05/03 13:44:57;;;;;;;1.13;1.13;;;;;;;;;;4205974;28;20087;-57
2023/05/03 13:47:17;;;;;;;1.05;1.05;;;;;;;;;;4205989;28;20078;-57
2023/05/03 13:49:37;;;;;;;1.10;1.10;;;;;;;;;;4204929;28;20067;-57
2023/05/03 13:51:58;;;;;;;1.45;1.08;;;;;;;;;;4205063;28;20055;-57
2023/05/03 13:54:18;;;;;;;1.10;1.10;;;;;;;;;;4206299;28;20043;-57
2023/05/03 13:56:39;;;;;;;1.23;1.10;;;;;;;;;;4205270;28;20075;-57
2023/05/03 13:58:59;;;;;;;1.00;1.00;;;;;;;;;;4205337;28;20055;-57
2023/05/03 14:01:19;;;;;;;1.65;1.10;;;;;;;;;;4204710;28;20051;-58
2023/05/03 14:03:39;;;;;;;1.20;1.20;;;;;;;;;;4205968;28;20070;-57
2023/05/03 14:06:00;;;;;;;1.10;1.10;;;;;;;;;;4205399;28;20055;-57
2023/05/03 14:08:20;;;;;;;1.10;1.10;;;;;;;;;;4204352;28;20051;-57